Time;durP1;ratioP1;P1;durP2;ratioP2;P2;SDS_P1;SDS_P2;PMS_P1;PMS_P2;Temp;Humidity;BMP_temperature;BMP_pressure;BME280_temperature;BME280_humidity;BME280_pressure;Samples;Min_cycle;Max_cycle;Signal;HPM_P1;HPM_P2
2022/03/08 00:00:40;;;;;;;10.07;7.45;;;;;;;;;;4971831;28;20130;-78
2022/03/08 00:03:07;;;;;;;10.75;6.68;;;;;;;;;;4970955;28;20528;-78
2022/03/08 00:05:33;;;;;;;9.30;7.43;;;;;;;;;;4976660;23;20745;-80
2022/03/08 00:07:59;;;;;;;10.98;6.82;;;;;;;;;;4941149;28;20054;-79
2022/03/08 00:10:26;;;;;;;11.85;6.95;;;;;;;;;;4956449;28;20121;-80
2022/03/08 00:12:52;;;;;;;8.70;6.93;;;;;;;;;;4954968;28;20047;-80
2022/03/08 00:15:20;;;;;;;8.38;6.93;;;;;;;;;;4937241;28;20046;-79
2022/03/08 00:17:47;;;;;;;9.75;7.32;;;;;;;;;;4973627;28;20046;-80
2022/03/08 00:20:13;;;;;;;9.25;6.68;;;;;;;;;;4972629;28;20047;-80
2022/03/08 00:22:40;;;;;;;11.60;7.93;;;;;;;;;;4973915;28;20050;-80
2022/03/08 00:25:07;;;;;;;10.10;8.00;;;;;;;;;;4955800;28;20084;-80
2022/03/08 00:27:34;;;;;;;9.05;7.13;;;;;;;;;;4973628;28;20077;-79
2022/03/08 00:30:00;;;;;;;9.02;7.85;;;;;;;;;;4948485;28;20121;-80
2022/03/08 00:32:26;;;;;;;9.52;7.85;;;;;;;;;;4940243;28;20054;-80
2022/03/08 00:34:52;;;;;;;10.15;7.82;;;;;;;;;;4969007;28;20090;-80
2022/03/08 00:37:18;;;;;;;10.13;8.00;;;;;;;;;;4955352;28;20121;-80
2022/03/08 00:39:44;;;;;;;9.70;8.18;;;;;;;;;;4946724;28;20129;-80
2022/03/08 00:42:11;;;;;;;9.85;8.13;;;;;;;;;;4973852;28;20102;-80
2022/03/08 00:44:41;;;;;;;11.55;7.85;;;;;;;;;;4956087;28;20480;-80
2022/03/08 00:47:07;;;;;;;11.20;7.88;;;;;;;;;;4971222;28;20173;-79
2022/03/08 00:49:33;;;;;;;10.80;7.82;;;;;;;;;;4955577;28;20050;-80
2022/03/08 00:51:59;;;;;;;11.25;8.90;;;;;;;;;;4956165;28;20120;-80
2022/03/08 00:54:26;;;;;;;10.55;7.95;;;;;;;;;;4973230;28;20125;-80
2022/03/08 00:56:52;;;;;;;9.02;7.45;;;;;;;;;;4973081;28;20045;-80
2022/03/08 00:59:18;;;;;;;12.35;8.23;;;;;;;;;;4955823;28;20054;-80
2022/03/08 01:01:44;;;;;;;10.85;8.07;;;;;;;;;;4954029;28;20050;-80
2022/03/08 01:04:10;;;;;;;11.35;8.15;;;;;;;;;;4973253;28;20034;-80
2022/03/08 01:06:36;;;;;;;10.15;8.13;;;;;;;;;;4945874;29;20053;-80
2022/03/08 01:09:03;;;;;;;11.20;9.10;;;;;;;;;;4956010;28;20085;-80
2022/03/08 01:11:29;;;;;;;9.43;8.15;;;;;;;;;;4939522;28;20041;-80
2022/03/08 01:13:55;;;;;;;13.10;8.10;;;;;;;;;;4973777;28;20042;-80
2022/03/08 01:16:21;;;;;;;8.95;7.65;;;;;;;;;;4972406;28;20042;-80
2022/03/08 01:18:48;;;;;;;9.05;7.88;;;;;;;;;;4945599;28;20047;-80
2022/03/08 01:21:14;;;;;;;9.55;7.93;;;;;;;;;;4954979;28;20066;-80
2022/03/08 01:23:41;;;;;;;11.13;8.32;;;;;;;;;;4954348;28;20047;-80
2022/03/08 01:26:07;;;;;;;9.50;7.53;;;;;;;;;;4972938;28;20049;-80
2022/03/08 01:28:34;;;;;;;8.50;7.30;;;;;;;;;;4938997;28;20035;-80
2022/03/08 01:31:00;;;;;;;11.05;7.60;;;;;;;;;;4955546;28;20074;-80
2022/03/08 01:33:26;;;;;;;10.20;7.97;;;;;;;;;;4954783;28;20098;-80
2022/03/08 01:35:52;;;;;;;12.98;7.38;;;;;;;;;;4938677;28;20039;-79
2022/03/08 01:38:18;;;;;;;8.35;7.43;;;;;;;;;;4955122;28;20047;-80
2022/03/08 01:40:45;;;;;;;10.45;7.72;;;;;;;;;;4972511;28;20101;-80
2022/03/08 01:43:11;;;;;;;9.52;7.70;;;;;;;;;;4955285;28;20116;-80
2022/03/08 01:45:37;;;;;;;10.18;8.20;;;;;;;;;;4946637;28;20129;-80
2022/03/08 01:48:03;;;;;;;10.23;8.23;;;;;;;;;;4971028;28;20452;-80
2022/03/08 01:50:29;;;;;;;9.48;8.15;;;;;;;;;;4955088;28;20050;-80
2022/03/08 01:52:56;;;;;;;11.00;8.18;;;;;;;;;;4955557;28;20373;-80
2022/03/08 01:55:22;;;;;;;10.32;8.15;;;;;;;;;;4955287;28;20057;-80
2022/03/08 01:57:49;;;;;;;10.00;7.82;;;;;;;;;;4946184;28;20068;-80
2022/03/08 02:00:17;;;;;;;10.07;8.93;;;;;;;;;;4938943;28;20046;-80
2022/03/08 02:02:43;;;;;;;11.32;8.38;;;;;;;;;;4972275;28;20093;-80
2022/03/08 02:05:09;;;;;;;10.10;8.23;;;;;;;;;;4948620;28;20039;-80
2022/03/08 02:07:36;;;;;;;11.63;8.70;;;;;;;;;;4971987;28;20065;-80
2022/03/08 02:10:01;;;;;;;11.07;7.68;;;;;;;;;;4954898;28;20043;-80
2022/03/08 02:12:27;;;;;;;12.23;7.97;;;;;;;;;;4939153;28;20068;-80
2022/03/08 02:14:53;;;;;;;9.10;7.93;;;;;;;;;;4972545;28;20038;-80
2022/03/08 02:17:19;;;;;;;10.23;8.18;;;;;;;;;;4955079;28;20047;-81
2022/03/08 02:19:45;;;;;;;9.57;7.75;;;;;;;;;;4938924;28;20050;-80
2022/03/08 02:22:11;;;;;;;10.35;8.55;;;;;;;;;;4954076;28;20047;-80
2022/03/08 02:24:37;;;;;;;10.77;8.73;;;;;;;;;;4955196;28;20828;-80
2022/03/08 02:27:04;;;;;;;10.05;8.00;;;;;;;;;;4954320;28;20057;-80
2022/03/08 02:29:29;;;;;;;9.00;7.70;;;;;;;;;;4954206;28;20041;-80
2022/03/08 02:31:56;;;;;;;10.50;7.78;;;;;;;;;;4955053;28;20042;-80
2022/03/08 02:34:22;;;;;;;11.13;7.68;;;;;;;;;;4954969;28;20035;-80
2022/03/08 02:36:59;;;;;;;11.60;8.70;;;;;;;;;;4958017;28;20478;-80
2022/03/08 02:39:25;;;;;;;12.10;8.45;;;;;;;;;;4941176;28;20035;-80
2022/03/08 02:41:51;;;;;;;11.35;8.82;;;;;;;;;;4957489;28;20073;-80
2022/03/08 02:44:17;;;;;;;10.32;8.25;;;;;;;;;;4956464;28;20070;-80
2022/03/08 02:46:43;;;;;;;10.02;8.13;;;;;;;;;;4954453;28;20668;-80
2022/03/08 02:49:10;;;;;;;11.68;8.73;;;;;;;;;;4958270;28;20133;-80
2022/03/08 02:51:36;;;;;;;11.70;8.40;;;;;;;;;;4942198;28;20046;-80
2022/03/08 02:54:02;;;;;;;11.38;8.27;;;;;;;;;;4957387;28;20043;-80
2022/03/08 02:56:30;;;;;;;10.35;7.75;;;;;;;;;;4958386;28;20038;-80
2022/03/08 02:58:56;;;;;;;11.95;8.55;;;;;;;;;;4941713;28;20047;-80
2022/03/08 03:01:22;;;;;;;12.02;8.88;;;;;;;;;;4958358;28;20043;-80
2022/03/08 03:03:47;;;;;;;12.88;8.48;;;;;;;;;;4975862;28;20469;-80
2022/03/08 03:06:13;;;;;;;11.90;8.45;;;;;;;;;;4940095;28;20475;-80
2022/03/08 03:08:39;;;;;;;13.57;9.30;;;;;;;;;;4957949;28;20101;-81
2022/03/08 03:11:05;;;;;;;11.50;8.85;;;;;;;;;;4957971;28;20130;-80
2022/03/08 03:13:31;;;;;;;10.90;8.38;;;;;;;;;;4956572;28;20121;-80
2022/03/08 03:15:57;;;;;;;11.93;8.73;;;;;;;;;;4958615;28;20062;-80
2022/03/08 03:18:23;;;;;;;11.80;8.55;;;;;;;;;;4957942;28;20093;-81
2022/03/08 03:20:49;;;;;;;12.98;9.48;;;;;;;;;;4957127;28;20576;-80
2022/03/08 03:23:15;;;;;;;10.90;8.70;;;;;;;;;;4941836;28;20038;-81
2022/03/08 03:25:41;;;;;;;11.82;9.27;;;;;;;;;;4957850;28;20039;-80
2022/03/08 03:28:07;;;;;;;12.18;9.43;;;;;;;;;;4941500;28;20050;-80
2022/03/08 03:30:33;;;;;;;13.32;9.63;;;;;;;;;;4954326;28;20035;-81
2022/03/08 03:33:01;;;;;;;15.05;9.93;;;;;;;;;;4957765;28;20047;-80
2022/03/08 03:35:27;;;;;;;14.70;10.10;;;;;;;;;;4942177;28;20043;-84
2022/03/08 03:37:53;;;;;;;14.90;10.43;;;;;;;;;;4959189;28;20141;-83
2022/03/08 03:40:19;;;;;;;15.88;10.55;;;;;;;;;;4959745;28;20050;-84
2022/03/08 03:42:45;;;;;;;15.20;11.32;;;;;;;;;;4939885;29;20818;-84
2022/03/08 03:45:11;;;;;;;14.68;10.40;;;;;;;;;;4958359;28;20042;-83
2022/03/08 03:47:38;;;;;;;14.73;10.90;;;;;;;;;;4958195;28;20043;-84
2022/03/08 03:50:05;;;;;;;18.67;12.25;;;;;;;;;;4958779;28;20050;-84
2022/03/08 03:52:30;;;;;;;16.35;11.63;;;;;;;;;;4958683;28;20039;-83
2022/03/08 03:54:56;;;;;;;16.70;11.90;;;;;;;;;;4953960;29;20126;-84
2022/03/08 03:57:23;;;;;;;14.15;10.35;;;;;;;;;;4941237;28;20075;-83
2022/03/08 03:59:48;;;;;;;15.93;11.38;;;;;;;;;;4943459;28;20125;-84
2022/03/08 04:02:15;;;;;;;15.15;11.18;;;;;;;;;;4939154;29;20131;-83
2022/03/08 04:04:41;;;;;;;15.40;10.73;;;;;;;;;;4934862;28;20046;-83
2022/03/08 04:07:07;;;;;;;13.93;10.20;;;;;;;;;;4955493;29;20062;-83
2022/03/08 04:09:32;;;;;;;15.15;10.40;;;;;;;;;;4955868;29;20051;-83
2022/03/08 04:11:58;;;;;;;15.23;11.82;;;;;;;;;;4955442;29;20046;-83
2022/03/08 04:14:25;;;;;;;14.40;10.25;;;;;;;;;;4955673;29;20130;-83
2022/03/08 04:16:51;;;;;;;16.85;11.10;;;;;;;;;;4954347;29;20151;-83
2022/03/08 04:19:17;;;;;;;15.13;11.02;;;;;;;;;;4939055;29;20074;-83
2022/03/08 04:21:43;;;;;;;20.17;11.23;;;;;;;;;;4955507;29;20051;-83
2022/03/08 04:24:10;;;;;;;13.60;10.15;;;;;;;;;;4939517;29;20066;-83
2022/03/08 04:26:35;;;;;;;16.17;11.60;;;;;;;;;;4939316;29;20054;-83
2022/03/08 04:29:01;;;;;;;15.60;11.27;;;;;;;;;;4955099;29;20047;-83
2022/03/08 04:31:27;;;;;;;15.88;11.00;;;;;;;;;;4938938;29;20043;-83
2022/03/08 04:33:53;;;;;;;16.77;11.50;;;;;;;;;;4925144;29;20040;-83
2022/03/08 04:36:19;;;;;;;17.70;11.25;;;;;;;;;;4954411;29;20082;-84
2022/03/08 04:38:45;;;;;;;16.42;11.68;;;;;;;;;;4955484;29;20042;-83
2022/03/08 04:41:12;;;;;;;15.15;11.07;;;;;;;;;;4954844;29;20094;-83
2022/03/08 04:43:38;;;;;;;15.40;11.60;;;;;;;;;;4938982;29;20098;-83
2022/03/08 04:46:04;;;;;;;17.05;11.98;;;;;;;;;;4954497;29;20050;-83
2022/03/08 04:48:29;;;;;;;15.73;11.05;;;;;;;;;;4938679;29;20046;-83
2022/03/08 04:50:55;;;;;;;16.10;11.80;;;;;;;;;;4938762;29;20501;-83
2022/03/08 04:53:21;;;;;;;17.42;11.70;;;;;;;;;;4938019;29;20067;-83
2022/03/08 04:55:47;;;;;;;17.48;11.95;;;;;;;;;;4954368;29;20389;-83
2022/03/08 04:58:13;;;;;;;15.20;11.85;;;;;;;;;;4955013;28;20102;-83
2022/03/08 05:00:39;;;;;;;16.05;12.10;;;;;;;;;;4954308;29;20050;-83
2022/03/08 05:03:05;;;;;;;17.85;11.45;;;;;;;;;;4954165;29;20043;-83
2022/03/08 05:05:33;;;;;;;16.73;11.50;;;;;;;;;;4954560;29;20074;-83
2022/03/08 05:07:59;;;;;;;16.15;12.48;;;;;;;;;;4954304;29;20564;-84
2022/03/08 05:10:26;;;;;;;16.50;11.77;;;;;;;;;;4954749;29;20454;-84
2022/03/08 05:12:52;;;;;;;17.55;11.95;;;;;;;;;;4949628;29;20040;-83
2022/03/08 05:15:18;;;;;;;17.38;12.15;;;;;;;;;;4919752;29;20049;-83
2022/03/08 05:17:44;;;;;;;15.38;11.73;;;;;;;;;;4920318;29;20872;-83
2022/03/08 05:20:11;;;;;;;17.88;11.43;;;;;;;;;;4935617;29;20517;-83
2022/03/08 05:22:37;;;;;;;17.05;12.85;;;;;;;;;;4946892;29;20075;-83
2022/03/08 05:25:03;;;;;;;15.48;11.90;;;;;;;;;;4954559;29;20047;-83
2022/03/08 05:27:29;;;;;;;18.23;11.77;;;;;;;;;;4954552;29;20047;-83
2022/03/08 05:29:55;;;;;;;16.55;12.52;;;;;;;;;;4955150;29;20605;-83
2022/03/08 05:32:21;;;;;;;16.35;11.98;;;;;;;;;;4954398;29;20481;-83
2022/03/08 05:34:47;;;;;;;15.32;11.43;;;;;;;;;;4953767;29;20098;-83
2022/03/08 05:37:13;;;;;;;15.52;11.88;;;;;;;;;;4953251;29;20047;-83
2022/03/08 05:39:39;;;;;;;17.85;12.60;;;;;;;;;;4938519;29;20043;-83
2022/03/08 05:42:05;;;;;;;17.50;12.63;;;;;;;;;;4938760;29;20043;-83
2022/03/08 05:44:31;;;;;;;15.52;11.95;;;;;;;;;;4954473;29;20121;-83
2022/03/08 05:46:57;;;;;;;16.52;12.48;;;;;;;;;;4938615;29;20051;-83
2022/03/08 05:49:23;;;;;;;17.92;12.88;;;;;;;;;;4955828;29;20098;-83
2022/03/08 05:51:49;;;;;;;16.85;12.82;;;;;;;;;;4954227;29;20039;-83
2022/03/08 05:54:15;;;;;;;16.92;12.73;;;;;;;;;;4938339;29;20448;-83
2022/03/08 05:56:42;;;;;;;16.90;12.82;;;;;;;;;;4954171;29;20039;-83
2022/03/08 05:59:08;;;;;;;19.88;13.20;;;;;;;;;;4954474;29;20058;-83
2022/03/08 06:01:34;;;;;;;17.20;12.55;;;;;;;;;;4937183;29;20039;-83
2022/03/08 06:04:00;;;;;;;17.48;12.73;;;;;;;;;;4953085;29;20078;-83
2022/03/08 06:06:26;;;;;;;19.15;13.48;;;;;;;;;;4937824;29;20051;-83
2022/03/08 06:08:52;;;;;;;19.42;13.57;;;;;;;;;;4952980;29;20052;-83
2022/03/08 06:11:18;;;;;;;17.55;12.85;;;;;;;;;;4940562;29;20433;-84
2022/03/08 06:13:45;;;;;;;21.02;12.73;;;;;;;;;;4956905;29;20166;-83
2022/03/08 06:16:11;;;;;;;16.95;12.60;;;;;;;;;;4941114;29;20042;-84
2022/03/08 06:18:37;;;;;;;17.48;13.07;;;;;;;;;;4941335;29;20374;-84
2022/03/08 06:21:03;;;;;;;20.10;13.30;;;;;;;;;;4957225;29;20061;-84
2022/03/08 06:23:29;;;;;;;19.23;13.70;;;;;;;;;;4954837;29;20054;-84
2022/03/08 06:25:55;;;;;;;20.00;12.80;;;;;;;;;;4953829;29;20065;-84
2022/03/08 06:28:20;;;;;;;19.30;13.55;;;;;;;;;;4940872;29;20074;-84
2022/03/08 06:30:46;;;;;;;19.05;12.80;;;;;;;;;;4956887;29;20038;-83
2022/03/08 06:33:12;;;;;;;19.88;14.10;;;;;;;;;;4956863;29;20065;-84
2022/03/08 06:35:39;;;;;;;17.38;13.15;;;;;;;;;;4940637;29;20047;-84
2022/03/08 06:38:05;;;;;;;20.13;13.73;;;;;;;;;;4937803;29;20125;-84
2022/03/08 06:40:32;;;;;;;16.70;12.07;;;;;;;;;;4955596;29;20501;-84
2022/03/08 06:42:58;;;;;;;19.83;12.95;;;;;;;;;;4950219;29;20075;-84
2022/03/08 06:45:24;;;;;;;18.55;13.10;;;;;;;;;;4956702;29;20735;-84
2022/03/08 06:47:50;;;;;;;19.33;13.32;;;;;;;;;;4940610;29;20134;-84
2022/03/08 06:50:16;;;;;;;16.40;12.60;;;;;;;;;;4956603;29;20035;-84
2022/03/08 06:52:42;;;;;;;14.75;12.02;;;;;;;;;;4934355;29;20035;-84
2022/03/08 06:55:09;;;;;;;16.98;13.32;;;;;;;;;;4937474;29;20094;-82
2022/03/08 06:57:35;;;;;;;15.52;12.63;;;;;;;;;;4945721;29;20048;-83
2022/03/08 07:00:01;;;;;;;16.35;12.80;;;;;;;;;;4939313;29;20521;-83
2022/03/08 07:02:27;;;;;;;16.58;12.20;;;;;;;;;;4940280;29;20039;-84
2022/03/08 07:04:53;;;;;;;17.17;11.98;;;;;;;;;;4956791;29;20497;-84
2022/03/08 07:07:19;;;;;;;20.33;12.65;;;;;;;;;;4924216;29;20126;-84
2022/03/08 07:09:45;;;;;;;15.25;12.57;;;;;;;;;;4920687;29;20101;-84
2022/03/08 07:12:11;;;;;;;17.58;12.20;;;;;;;;;;4936860;29;20039;-84
2022/03/08 07:14:37;;;;;;;16.27;12.35;;;;;;;;;;4928297;29;20450;-84
2022/03/08 07:17:03;;;;;;;16.45;12.20;;;;;;;;;;4933177;29;20095;-84
2022/03/08 07:19:29;;;;;;;13.88;11.52;;;;;;;;;;4936767;29;20098;-83
2022/03/08 07:21:55;;;;;;;14.63;13.10;;;;;;;;;;4936858;29;20087;-85
2022/03/08 07:24:21;;;;;;;15.50;12.13;;;;;;;;;;4937422;29;20048;-85
2022/03/08 07:26:47;;;;;;;14.02;11.20;;;;;;;;;;4936568;29;20501;-86
2022/03/08 07:29:13;;;;;;;14.07;11.60;;;;;;;;;;4920606;29;20470;-86
2022/03/08 07:31:39;;;;;;;14.77;12.13;;;;;;;;;;4935741;29;20043;-85
2022/03/08 07:34:05;;;;;;;15.88;12.05;;;;;;;;;;4919849;29;20059;-86
2022/03/08 07:36:31;;;;;;;16.85;11.32;;;;;;;;;;4920598;29;20071;-86
2022/03/08 07:38:57;;;;;;;12.60;10.70;;;;;;;;;;4930648;29;20052;-85
2022/03/08 07:41:23;;;;;;;12.48;11.13;;;;;;;;;;4920450;29;20051;-84
2022/03/08 07:43:49;;;;;;;15.85;11.82;;;;;;;;;;4936845;29;20102;-84
2022/03/08 07:46:15;;;;;;;13.80;11.10;;;;;;;;;;4922940;29;20441;-84
2022/03/08 07:48:41;;;;;;;11.93;10.40;;;;;;;;;;4936462;29;20056;-84
2022/03/08 07:51:07;;;;;;;14.75;10.98;;;;;;;;;;4936805;29;20391;-85
2022/03/08 07:53:34;;;;;;;20.55;10.60;;;;;;;;;;4944914;29;20035;-85
2022/03/08 07:56:00;;;;;;;13.05;10.40;;;;;;;;;;4928092;29;20123;-84
2022/03/08 07:58:26;;;;;;;11.88;10.15;;;;;;;;;;4934240;29;20550;-83
2022/03/08 08:00:52;;;;;;;12.73;10.48;;;;;;;;;;4936143;29;20043;-84
2022/03/08 08:03:18;;;;;;;15.00;10.15;;;;;;;;;;4936151;29;20051;-84
2022/03/08 08:05:44;;;;;;;14.20;10.60;;;;;;;;;;4941433;28;20054;-83
2022/03/08 08:08:10;;;;;;;11.65;10.05;;;;;;;;;;4955591;28;20129;-84
2022/03/08 08:10:36;;;;;;;11.80;10.15;;;;;;;;;;4959066;28;20042;-84
2022/03/08 08:13:02;;;;;;;12.00;10.63;;;;;;;;;;4942377;28;20046;-83
2022/03/08 08:15:28;;;;;;;12.85;9.88;;;;;;;;;;4958605;28;20123;-84
2022/03/08 08:17:54;;;;;;;11.15;10.00;;;;;;;;;;4958193;28;20081;-83
2022/03/08 08:20:21;;;;;;;13.02;9.85;;;;;;;;;;4956178;28;20133;-84
2022/03/08 08:22:47;;;;;;;14.73;10.05;;;;;;;;;;4973620;28;20061;-83
2022/03/08 08:25:13;;;;;;;11.93;9.52;;;;;;;;;;4940117;28;20134;-83
2022/03/08 08:27:40;;;;;;;12.43;9.73;;;;;;;;;;4965442;28;20058;-83
2022/03/08 08:30:06;;;;;;;11.52;10.07;;;;;;;;;;4950035;28;20129;-82
2022/03/08 08:32:32;;;;;;;10.90;9.77;;;;;;;;;;4939245;29;20035;-83
2022/03/08 08:34:58;;;;;;;10.60;9.45;;;;;;;;;;4950895;28;20097;-84
2022/03/08 08:37:24;;;;;;;11.48;9.77;;;;;;;;;;4940207;28;20129;-85
2022/03/08 08:39:50;;;;;;;12.70;9.68;;;;;;;;;;4939785;28;20073;-83
2022/03/08 08:42:16;;;;;;;10.07;8.55;;;;;;;;;;4955661;28;20034;-83
2022/03/08 08:44:42;;;;;;;11.93;10.20;;;;;;;;;;4953873;28;20046;-83
2022/03/08 08:47:08;;;;;;;12.00;9.25;;;;;;;;;;4957016;28;20078;-83
2022/03/08 08:49:34;;;;;;;10.82;9.43;;;;;;;;;;4955130;28;20118;-83
2022/03/08 08:52:00;;;;;;;10.93;9.20;;;;;;;;;;4955722;28;20054;-83
2022/03/08 08:54:26;;;;;;;13.15;9.90;;;;;;;;;;4955735;28;20043;-83
2022/03/08 08:56:52;;;;;;;12.48;9.75;;;;;;;;;;4955883;28;20053;-83
2022/03/08 08:59:18;;;;;;;11.70;9.13;;;;;;;;;;4956082;28;20081;-82
2022/03/08 09:01:44;;;;;;;14.95;9.45;;;;;;;;;;4958581;28;20090;-82
2022/03/08 09:04:10;;;;;;;11.02;9.80;;;;;;;;;;4955480;28;20045;-82
2022/03/08 09:06:36;;;;;;;11.93;9.40;;;;;;;;;;4964097;28;20058;-83
2022/03/08 09:09:03;;;;;;;13.00;9.32;;;;;;;;;;4957646;28;20058;-83
2022/03/08 09:11:29;;;;;;;11.23;8.30;;;;;;;;;;4950095;28;20089;-82
2022/03/08 09:13:56;;;;;;;9.60;8.63;;;;;;;;;;4963262;28;20229;-82
2022/03/08 09:16:23;;;;;;;12.60;8.18;;;;;;;;;;4956931;28;20049;-83
2022/03/08 09:18:49;;;;;;;12.98;9.23;;;;;;;;;;4953116;28;20085;-82
2022/03/08 09:21:15;;;;;;;10.75;8.90;;;;;;;;;;4966884;28;20133;-82
2022/03/08 09:23:41;;;;;;;10.18;8.60;;;;;;;;;;4945952;28;20062;-82
2022/03/08 09:26:08;;;;;;;12.20;9.45;;;;;;;;;;4956082;28;20057;-83
2022/03/08 09:28:34;;;;;;;10.25;9.07;;;;;;;;;;4954800;28;20375;-83
2022/03/08 09:31:00;;;;;;;9.68;8.68;;;;;;;;;;4955433;28;20043;-83
2022/03/08 09:33:27;;;;;;;9.27;8.30;;;;;;;;;;4955679;28;20080;-83
2022/03/08 09:35:53;;;;;;;9.32;8.38;;;;;;;;;;4958252;28;20043;-83
2022/03/08 09:38:19;;;;;;;9.90;8.45;;;;;;;;;;4952907;28;20043;-83
2022/03/08 09:40:45;;;;;;;10.10;9.10;;;;;;;;;;4936863;28;20602;-83
2022/03/08 09:43:11;;;;;;;9.55;8.38;;;;;;;;;;4940607;28;20396;-83
2022/03/08 09:45:38;;;;;;;10.18;9.18;;;;;;;;;;4958027;28;20182;-82
2022/03/08 09:48:05;;;;;;;9.38;8.25;;;;;;;;;;4944010;28;20043;-82
2022/03/08 09:50:31;;;;;;;9.95;8.93;;;;;;;;;;4958275;28;20045;-83
2022/03/08 09:52:57;;;;;;;9.77;8.77;;;;;;;;;;4961389;28;20129;-83
2022/03/08 09:55:25;;;;;;;10.38;8.73;;;;;;;;;;4958229;28;20039;-83
2022/03/08 09:57:51;;;;;;;8.60;7.80;;;;;;;;;;4944174;28;20142;-83
2022/03/08 10:00:17;;;;;;;8.63;7.82;;;;;;;;;;4961690;28;20074;-83
2022/03/08 10:02:49;;;;;;;8.90;8.00;;;;;;;;;;4957089;28;20038;-82
2022/03/08 10:05:15;;;;;;;8.82;7.95;;;;;;;;;;4933638;28;20050;-83
2022/03/08 10:08:01;;;;;;;8.02;7.18;;;;;;;;;;4942754;28;20061;-83
2022/03/08 10:10:29;;;;;;;8.70;7.25;;;;;;;;;;4943347;28;20054;-83
2022/03/08 10:12:57;;;;;;;8.60;7.53;;;;;;;;;;4959589;28;20074;-83
2022/03/08 10:15:23;;;;;;;7.80;6.60;;;;;;;;;;4959155;28;20034;-83
2022/03/08 10:17:49;;;;;;;8.18;7.10;;;;;;;;;;4943780;28;20428;-83
2022/03/08 10:20:28;;;;;;;6.45;5.85;;;;;;;;;;4952304;28;20047;-83
2022/03/08 10:22:54;;;;;;;7.13;6.43;;;;;;;;;;4951919;28;20042;-83
2022/03/08 10:25:25;;;;;;;7.30;6.60;;;;;;;;;;4943541;28;20043;-83
2022/03/08 10:27:51;;;;;;;8.48;6.75;;;;;;;;;;4964874;28;20054;-83
2022/03/08 10:30:16;;;;;;;7.20;6.50;;;;;;;;;;4962483;28;20038;-83
2022/03/08 10:32:43;;;;;;;6.55;5.80;;;;;;;;;;4959591;28;20117;-82
2022/03/08 10:35:10;;;;;;;6.43;5.75;;;;;;;;;;4958903;28;20042;-83
2022/03/08 10:37:37;;;;;;;5.53;4.97;;;;;;;;;;4943693;28;20046;-83
2022/03/08 10:40:05;;;;;;;7.35;5.60;;;;;;;;;;4943280;28;20055;-82
2022/03/08 10:42:37;;;;;;;6.97;5.82;;;;;;;;;;4959031;28;20370;-83
2022/03/08 10:45:03;;;;;;;6.97;5.88;;;;;;;;;;4958583;28;20054;-82
2022/03/08 10:47:37;;;;;;;7.22;6.53;;;;;;;;;;4958117;28;20404;-82
2022/03/08 10:50:04;;;;;;;7.70;6.70;;;;;;;;;;4957799;28;20092;-82
2022/03/08 10:52:31;;;;;;;6.68;5.97;;;;;;;;;;4943032;28;20039;-83
2022/03/08 10:55:10;;;;;;;6.93;6.00;;;;;;;;;;4951224;29;20039;-83
2022/03/08 10:57:36;;;;;;;7.20;6.22;;;;;;;;;;4959010;28;20038;-83
2022/03/08 11:00:09;;;;;;;6.55;5.95;;;;;;;;;;4959259;28;20042;-83
2022/03/08 11:02:36;;;;;;;7.55;5.97;;;;;;;;;;4957417;28;20046;-83
2022/03/08 11:05:09;;;;;;;7.20;6.30;;;;;;;;;;4951289;28;20439;-83
2022/03/08 11:07:38;;;;;;;7.20;6.50;;;;;;;;;;4958521;28;20093;-82
2022/03/08 11:10:05;;;;;;;7.88;6.32;;;;;;;;;;4942892;28;20039;-83
2022/03/08 11:12:31;;;;;;;8.73;6.20;;;;;;;;;;4950695;28;20098;-83
2022/03/08 11:14:57;;;;;;;7.95;5.70;;;;;;;;;;4943271;28;20126;-82
2022/03/08 11:17:24;;;;;;;6.53;5.85;;;;;;;;;;4945296;28;20054;-83
2022/03/08 11:19:51;;;;;;;9.88;6.30;;;;;;;;;;4957869;28;20046;-82
2022/03/08 11:22:20;;;;;;;7.53;6.30;;;;;;;;;;4958240;28;20539;-83
2022/03/08 11:24:47;;;;;;;6.70;6.10;;;;;;;;;;4958998;28;20149;-82
2022/03/08 11:27:14;;;;;;;7.05;5.95;;;;;;;;;;4936436;29;20070;-83
2022/03/08 11:29:40;;;;;;;6.35;5.20;;;;;;;;;;4954258;28;20058;-83
2022/03/08 11:32:07;;;;;;;8.30;5.43;;;;;;;;;;4958213;28;20126;-83
2022/03/08 11:34:36;;;;;;;6.00;5.40;;;;;;;;;;4942231;28;20071;-82
2022/03/08 11:37:04;;;;;;;8.13;6.25;;;;;;;;;;4956094;28;20039;-82
2022/03/08 11:39:31;;;;;;;6.70;5.30;;;;;;;;;;4957588;28;20469;-82
2022/03/08 11:41:58;;;;;;;6.20;5.13;;;;;;;;;;4957704;28;20547;-82
2022/03/08 11:44:26;;;;;;;6.07;5.03;;;;;;;;;;4957669;28;20047;-81
2022/03/08 11:47:01;;;;;;;6.50;5.50;;;;;;;;;;4939676;28;20074;-81
2022/03/08 11:49:46;;;;;;;6.13;5.47;;;;;;;;;;4956862;28;20744;-81
2022/03/08 11:52:14;;;;;;;5.82;4.78;;;;;;;;;;4953379;28;20056;-81
2022/03/08 11:54:40;;;;;;;5.07;4.57;;;;;;;;;;4951551;28;20079;-82
2022/03/08 11:57:06;;;;;;;6.05;5.00;;;;;;;;;;4937866;28;20137;-82
2022/03/08 11:59:32;;;;;;;5.13;4.22;;;;;;;;;;4941028;28;20035;-82
2022/03/08 12:02:01;;;;;;;5.57;4.50;;;;;;;;;;4940569;28;20035;-82
2022/03/08 12:04:27;;;;;;;4.72;4.22;;;;;;;;;;4957135;28;20528;-81
2022/03/08 12:06:58;;;;;;;4.97;4.47;;;;;;;;;;4956484;28;20058;-82
2022/03/08 12:09:25;;;;;;;4.28;3.88;;;;;;;;;;4967380;28;20054;-82
2022/03/08 12:11:53;;;;;;;4.88;4.30;;;;;;;;;;4935319;28;20039;-82
2022/03/08 12:14:20;;;;;;;4.78;3.88;;;;;;;;;;4939128;28;20118;-81
2022/03/08 12:16:48;;;;;;;4.72;4.20;;;;;;;;;;4956331;28;20038;-81
2022/03/08 12:19:19;;;;;;;5.70;3.75;;;;;;;;;;4941877;28;20122;-81
2022/03/08 12:21:46;;;;;;;5.03;4.30;;;;;;;;;;4956265;23;20055;-81
2022/03/08 12:24:17;;;;;;;4.95;4.25;;;;;;;;;;4949984;28;20050;-81
2022/03/08 12:26:50;;;;;;;4.70;4.10;;;;;;;;;;4925046;29;20042;-81
2022/03/08 12:29:19;;;;;;;6.70;4.30;;;;;;;;;;4938180;28;20317;-81
2022/03/08 12:31:57;;;;;;;6.15;4.15;;;;;;;;;;4940364;28;20385;-81
2022/03/08 12:34:46;;;;;;;5.38;4.18;;;;;;;;;;4930736;28;20054;-81
2022/03/08 12:37:27;;;;;;;6.03;4.60;;;;;;;;;;4936441;28;20054;-82
2022/03/08 12:39:53;;;;;;;5.40;4.47;;;;;;;;;;4939037;28;20067;-81
2022/03/08 12:42:19;;;;;;;4.13;3.72;;;;;;;;;;4947439;28;20122;-81
2022/03/08 12:44:51;;;;;;;4.82;4.30;;;;;;;;;;4950242;28;20043;-81
2022/03/08 12:47:17;;;;;;;7.70;4.50;;;;;;;;;;4943827;28;20094;-81
2022/03/08 12:49:44;;;;;;;5.72;3.92;;;;;;;;;;4947373;28;20044;-81
2022/03/08 12:52:10;;;;;;;5.28;4.68;;;;;;;;;;4932960;29;20080;-81
2022/03/08 12:54:37;;;;;;;4.93;4.43;;;;;;;;;;4947395;29;20125;-81
2022/03/08 12:57:04;;;;;;;5.18;4.25;;;;;;;;;;4937167;29;20043;-81
2022/03/08 12:59:30;;;;;;;5.88;4.68;;;;;;;;;;4942515;29;20035;-81
2022/03/08 13:02:11;;;;;;;5.57;4.60;;;;;;;;;;4942283;29;20040;-82
2022/03/08 13:04:37;;;;;;;4.70;3.60;;;;;;;;;;4952369;29;20043;-81
2022/03/08 13:07:22;;;;;;;5.38;3.63;;;;;;;;;;4949570;29;20035;-81
2022/03/08 13:09:58;;;;;;;4.38;3.72;;;;;;;;;;4941602;29;20039;-81
2022/03/08 13:12:32;;;;;;;4.68;3.78;;;;;;;;;;4948208;29;20055;-81
2022/03/08 13:15:05;;;;;;;3.95;3.60;;;;;;;;;;4942590;29;20040;-81
2022/03/08 13:17:32;;;;;;;4.53;4.13;;;;;;;;;;4950835;29;20074;-81
2022/03/08 13:19:58;;;;;;;4.13;3.72;;;;;;;;;;4950612;28;20058;-81
2022/03/08 13:22:24;;;;;;;5.78;4.35;;;;;;;;;;4952365;29;20055;-81
2022/03/08 13:25:07;;;;;;;5.03;4.28;;;;;;;;;;4952056;29;20039;-81
2022/03/08 13:27:53;;;;;;;11.40;8.40;;;;;;;;;;4949526;29;20051;-81
2022/03/08 13:30:21;;;;;;;4.80;4.30;;;;;;;;;;4935141;29;20043;-80
2022/03/08 13:32:47;;;;;;;5.05;4.00;;;;;;;;;;4951816;29;20042;-80
2022/03/08 13:35:13;;;;;;;5.35;4.15;;;;;;;;;;4951179;29;20043;-81
2022/03/08 13:37:49;;;;;;;4.10;3.80;;;;;;;;;;4951710;29;20039;-81
2022/03/08 13:40:25;;;;;;;4.47;3.92;;;;;;;;;;4951526;29;20536;-81
2022/03/08 13:42:51;;;;;;;4.53;3.83;;;;;;;;;;4945793;29;20039;-81
2022/03/08 13:45:17;;;;;;;4.22;3.58;;;;;;;;;;4950911;29;20098;-81
2022/03/08 13:47:43;;;;;;;4.57;3.45;;;;;;;;;;4935712;29;20039;-81
2022/03/08 13:50:09;;;;;;;3.95;3.53;;;;;;;;;;4950930;29;20043;-80
2022/03/08 13:52:35;;;;;;;5.28;3.13;;;;;;;;;;4951471;29;20094;-80
2022/03/08 13:55:01;;;;;;;4.30;3.33;;;;;;;;;;4949413;29;20109;-80
2022/03/08 13:57:27;;;;;;;4.03;3.13;;;;;;;;;;4943111;29;20047;-80
2022/03/08 13:59:53;;;;;;;4.32;3.53;;;;;;;;;;4949435;29;20051;-79
2022/03/08 14:02:22;;;;;;;4.30;3.28;;;;;;;;;;4946760;29;20043;-80
2022/03/08 14:04:48;;;;;;;3.78;3.33;;;;;;;;;;4950225;29;20535;-79
2022/03/08 14:07:20;;;;;;;4.18;3.78;;;;;;;;;;4945769;29;20074;-80
2022/03/08 14:10:00;;;;;;;3.90;3.22;;;;;;;;;;4935596;29;20098;-80
2022/03/08 14:12:26;;;;;;;3.60;3.30;;;;;;;;;;4945662;29;20488;-80
2022/03/08 14:15:04;;;;;;;4.22;3.40;;;;;;;;;;4950219;29;20051;-79
2022/03/08 14:17:31;;;;;;;3.92;3.40;;;;;;;;;;4938855;29;20555;-80
2022/03/08 14:19:57;;;;;;;4.10;3.70;;;;;;;;;;4951844;29;20043;-79
2022/03/08 14:22:23;;;;;;;4.50;3.50;;;;;;;;;;4946453;29;20055;-80
2022/03/08 14:25:03;;;;;;;4.03;3.67;;;;;;;;;;4951442;29;20054;-80
2022/03/08 14:27:30;;;;;;;4.30;3.90;;;;;;;;;;4950644;29;20035;-80
2022/03/08 14:30:05;;;;;;;4.40;3.63;;;;;;;;;;4949860;29;20802;-80